createdAt,value
2022-08-06T00:02:25.847Z,98721.97
2022-08-06T00:05:01.343Z,98729.03
2022-08-06T00:07:44.824Z,98731.66
2022-08-06T00:10:29.232Z,98723.50
2022-08-06T00:13:00.322Z,98729.91
2022-08-06T00:16:10.080Z,98725.81
2022-08-06T00:18:18.299Z,98727.78
2022-08-06T00:20:46.479Z,98726.00
2022-08-06T00:23:18.032Z,98732.25
2022-08-06T00:25:52.155Z,98728.16
2022-08-06T00:28:31.500Z,98731.31
2022-08-06T00:31:06.170Z,98720.00
2022-08-06T00:33:43.910Z,98720.34
2022-08-06T00:36:28.371Z,98718.22
2022-08-06T00:39:00.166Z,98719.69
2022-08-06T00:41:41.505Z,98718.41
2022-08-06T00:44:12.330Z,98723.50
2022-08-06T00:46:42.746Z,98714.16
2022-08-06T00:49:12.080Z,98716.50
2022-08-06T00:51:50.253Z,98720.28
2022-08-06T00:54:28.481Z,98717.81
2022-08-06T00:57:07.563Z,98723.25
2022-08-06T00:59:39.547Z,98721.13
2022-08-06T01:02:09.947Z,98720.97
2022-08-06T01:04:38.447Z,98715.38
2022-08-06T01:07:09.138Z,98720.13
2022-08-06T01:09:45.943Z,98724.75
2022-08-06T01:12:33.292Z,98758.03
2022-08-06T01:15:05.174Z,98762.16
2022-08-06T01:18:06.030Z,98757.09
2022-08-06T01:21:57.682Z,98750.69
2022-08-06T01:23:53.857Z,98742.38
2022-08-06T01:26:45.163Z,98741.03
2022-08-06T01:29:37.944Z,98744.50
2022-08-06T01:32:19.208Z,98743.53
2022-08-06T01:34:56.576Z,98740.91
2022-08-06T01:37:38.411Z,98733.34
2022-08-06T01:40:17.392Z,98740.91
2022-08-06T01:42:54.218Z,98740.41
2022-08-06T01:45:42.348Z,98742.84
2022-08-06T01:48:28.657Z,98745.66
2022-08-06T01:51:03.987Z,98737.81
2022-08-06T01:54:06.097Z,98740.09
2022-08-06T01:56:31.036Z,98752.41
2022-08-06T01:59:16.541Z,98767.47
2022-08-06T02:01:53.695Z,98766.97
2022-08-06T02:04:27.822Z,98763.03
2022-08-06T02:06:58.042Z,98762.22
2022-08-06T02:09:33.621Z,98769.13
2022-08-06T02:12:17.625Z,98772.72
2022-08-06T02:15:00.470Z,98767.78
2022-08-06T02:18:04.002Z,98763.38
2022-08-06T02:20:35.964Z,98768.13
2022-08-06T02:23:09.289Z,98767.63
2022-08-06T02:25:41.919Z,98776.00
2022-08-06T02:28:25.173Z,98770.94
2022-08-06T02:30:55.563Z,98781.25
2022-08-06T02:33:31.981Z,98790.06
2022-08-06T02:36:27.139Z,98794.84
2022-08-06T02:38:57.745Z,98803.03
2022-08-06T02:41:53.607Z,98804.66
2022-08-06T02:44:45.947Z,98805.19
2022-08-06T02:48:02.074Z,98813.03
2022-08-06T02:50:38.731Z,98810.56
2022-08-06T02:53:24.775Z,98808.13
2022-08-06T02:55:59.006Z,98817.28
2022-08-06T02:58:57.960Z,98823.69
2022-08-06T03:01:43.026Z,98832.03
2022-08-06T03:04:12.362Z,98834.31
2022-08-06T03:06:45.202Z,98844.63
2022-08-06T03:09:16.334Z,98840.19
2022-08-06T03:11:47.535Z,98844.00
2022-08-06T03:15:04.148Z,98842.00
2022-08-06T03:17:07.543Z,98851.00
2022-08-06T03:19:56.455Z,98846.06
2022-08-06T03:22:35.944Z,98850.00
2022-08-06T03:25:15.027Z,98845.91
2022-08-06T03:27:44.970Z,98850.97
2022-08-06T03:30:31.346Z,98848.19
2022-08-06T03:33:41.870Z,98857.38
2022-08-06T03:36:03.925Z,98852.13
2022-08-06T03:38:39.892Z,98853.59
2022-08-06T03:41:18.122Z,98847.34
2022-08-06T03:43:55.826Z,98848.84
2022-08-06T03:47:18.990Z,98854.91
2022-08-06T03:50:13.562Z,98848.53
2022-08-06T03:52:52.814Z,98848.84
2022-08-06T03:55:25.703Z,98854.09
2022-08-06T03:58:03.135Z,98856.38
2022-08-06T04:00:38.348Z,98865.53
2022-08-06T04:03:09.573Z,98861.94
2022-08-06T04:05:47.985Z,98857.50
2022-08-06T04:08:17.028Z,98865.84
2022-08-06T04:10:52.968Z,98868.00
2022-08-06T04:13:40.519Z,98866.38
2022-08-06T04:16:29.994Z,98867.66
2022-08-06T04:19:04.007Z,98874.06
2022-08-06T04:23:08.562Z,98871.78
2022-08-06T04:24:18.894Z,98882.25
2022-08-06T04:26:51.956Z,98883.91
2022-08-06T04:29:22.083Z,98888.66
2022-08-06T04:32:13.078Z,98885.72
2022-08-06T04:36:02.709Z,98891.94
2022-08-06T04:37:40.408Z,98884.13
2022-08-06T04:40:15.379Z,98887.41
2022-08-06T04:42:55.835Z,98887.25
2022-08-06T04:46:17.148Z,98886.44
2022-08-06T04:48:21.507Z,98900.34
2022-08-06T04:50:49.312Z,98920.53
2022-08-06T04:53:42.695Z,98953.31
2022-08-06T04:56:15.148Z,98968.06
2022-08-06T04:58:54.363Z,98982.81
2022-08-06T05:01:21.832Z,99003.13
2022-08-06T05:04:13.286Z,98998.72
2022-08-06T05:07:02.507Z,98992.16
2022-08-06T05:09:42.506Z,99015.97
2022-08-06T05:12:39.682Z,99029.75
2022-08-06T05:15:41.794Z,99032.38
2022-08-06T05:19:20.604Z,99021.06
2022-08-06T05:21:21.925Z,99020.06
2022-08-06T05:23:53.393Z,99030.38
2022-08-06T05:26:25.109Z,99045.81
2022-08-06T05:28:54.357Z,99059.25
2022-08-06T05:31:46.205Z,99066.16
2022-08-06T05:34:15.054Z,99075.97
2022-08-06T05:36:43.932Z,99068.75
2022-08-06T05:39:57.053Z,99068.88
2022-08-06T05:41:59.874Z,99073.78
2022-08-06T05:44:29.574Z,99089.84
2022-08-06T05:47:08.423Z,99083.59
2022-08-06T05:49:55.684Z,99089.66
2022-08-06T05:52:52.122Z,99078.25
2022-08-06T05:55:51.843Z,99078.47
2022-08-06T05:58:54.743Z,99066.09
2022-08-06T06:01:24.195Z,99065.28
2022-08-06T06:03:57.072Z,99063.00
2022-08-06T06:06:27.771Z,99070.56
2022-08-06T06:08:59.223Z,99078.06
2022-08-06T06:11:55.192Z,99076.09
2022-08-06T06:14:38.379Z,99079.03
2022-08-06T06:17:49.075Z,99086.63
2022-08-06T06:21:03.379Z,99090.59
2022-08-06T06:23:33.820Z,99090.41
2022-08-06T06:26:32.463Z,99098.47
2022-08-06T06:29:55.521Z,99102.75
2022-08-06T06:32:42.607Z,99106.38
2022-08-06T06:35:22.523Z,99122.97
2022-08-06T06:38:14.247Z,99134.63
2022-08-06T06:41:20.583Z,99122.34
2022-08-06T06:44:17.801Z,99119.88
2022-08-06T06:47:02.679Z,99098.84
2022-08-06T06:49:59.981Z,99114.78
2022-08-06T06:52:32.713Z,99123.31
2022-08-06T06:55:17.097Z,99120.53
2022-08-06T06:57:59.276Z,99122.97
2022-08-06T07:00:44.418Z,99121.84
2022-08-06T07:03:17.031Z,99124.00
2022-08-06T07:06:05.410Z,99125.75
2022-08-06T07:08:45.922Z,99119.69
2022-08-06T07:11:23.537Z,99115.94
2022-08-06T07:13:59.065Z,99121.53
2022-08-06T07:16:35.791Z,99121.03
2022-08-06T07:19:10.269Z,99113.47
2022-08-06T07:21:42.443Z,99123.34
2022-08-06T07:24:38.193Z,99121.38
2022-08-06T07:27:14.742Z,99129.94
2022-08-06T07:29:49.213Z,99110.06
2022-08-06T07:32:33.095Z,99105.63
2022-08-06T07:35:12.836Z,99103.50
2022-08-06T07:38:07.639Z,99104.97
2022-08-06T07:41:09.300Z,99110.38
2022-08-06T07:43:53.707Z,99117.09
2022-08-06T07:46:35.168Z,99119.19
2022-08-06T07:49:08.495Z,99123.78
2022-08-06T07:51:44.233Z,99123.97
2022-08-06T07:54:12.999Z,99131.34
2022-08-06T07:56:59.802Z,99131.66
2022-08-06T07:59:30.606Z,99138.34
2022-08-06T08:02:02.682Z,99138.94
2022-08-06T08:04:52.382Z,99143.34
2022-08-06T08:07:37.163Z,99155.50
2022-08-06T08:10:07.022Z,99159.63
2022-08-06T08:12:38.452Z,99162.41
2022-08-06T08:15:17.644Z,99176.22
2022-08-06T08:17:46.897Z,99169.09
2022-08-06T08:20:32.693Z,99175.66
2022-08-06T08:23:05.800Z,99169.75
2022-08-06T08:25:40.536Z,99183.91
2022-08-06T08:28:15.213Z,99180.75
2022-08-06T08:30:47.988Z,99175.03
2022-08-06T08:33:19.679Z,99181.28
2022-08-06T08:36:00.902Z,99176.41
2022-08-06T08:38:31.771Z,99191.00
2022-08-06T08:41:21.937Z,99196.09
2022-08-06T08:44:04.547Z,99201.00
2022-08-06T08:46:42.202Z,99200.88
2022-08-06T08:49:37.406Z,99222.91
2022-08-06T08:52:11.328Z,99221.91
2022-08-06T08:54:47.785Z,99218.47
2022-08-06T08:58:38.682Z,99210.94
2022-08-06T09:00:10.930Z,99213.38
2022-08-06T09:02:49.989Z,99217.47
2022-08-06T09:05:19.410Z,99213.28
2022-08-06T09:08:01.128Z,99213.91
2022-08-06T09:10:32.600Z,99238.53
2022-08-06T09:13:22.229Z,99219.13
2022-08-06T09:18:27.128Z,99232.97
2022-08-06T09:20:58.048Z,99232.34
2022-08-06T09:23:29.340Z,99232.72
2022-08-06T09:26:06.821Z,99243.41
2022-08-06T09:28:45.260Z,99241.41
2022-08-06T09:31:21.961Z,99253.28
2022-08-06T09:34:28.700Z,99250.16
2022-08-06T09:36:57.456Z,99256.56
2022-08-06T09:39:46.433Z,99250.97
2022-08-06T09:42:18.442Z,99262.47
2022-08-06T09:45:15.180Z,99266.44
2022-08-06T09:47:58.805Z,99264.16
2022-08-06T09:50:39.816Z,99271.38
2022-08-06T09:53:14.379Z,99278.59
2022-08-06T09:55:43.459Z,99279.59
2022-08-06T09:58:12.585Z,99284.03
2022-08-06T10:00:41.067Z,99282.06
2022-08-06T10:04:02.164Z,99276.84
2022-08-06T10:06:21.913Z,99281.78
2022-08-06T10:09:21.066Z,99286.84
2022-08-06T10:11:57.050Z,99280.63
2022-08-06T10:14:34.935Z,99278.31
2022-08-06T10:17:19.423Z,99291.28
2022-08-06T10:20:04.831Z,99287.66
2022-08-06T10:22:38.354Z,99282.59
2022-08-06T10:25:12.810Z,99285.22
2022-08-06T10:27:42.091Z,99278.50
2022-08-06T10:32:59.476Z,99276.84
2022-08-06T10:35:29.730Z,99273.53
2022-08-06T10:38:14.472Z,99283.91
2022-08-06T10:40:58.862Z,99286.69
2022-08-06T10:43:34.737Z,99299.66
2022-08-06T10:46:07.102Z,99294.22
2022-08-06T10:50:23.309Z,99306.53
2022-08-06T10:51:55.953Z,99314.59
2022-08-06T10:54:19.680Z,99321.00
2022-08-06T10:56:48.239Z,99325.28
2022-08-06T11:02:33.360Z,99335.59
2022-08-06T11:05:17.932Z,99319.38
2022-08-06T11:08:40.443Z,99309.00
2022-08-06T11:11:25.236Z,99310.19
2022-08-06T11:14:02.943Z,99313.63
2022-08-06T11:16:34.310Z,99319.88
2022-08-06T11:19:13.377Z,99329.06
2022-08-06T11:21:58.643Z,99331.00
2022-08-06T11:24:32.239Z,99325.13
2022-08-06T11:27:11.042Z,99336.13
2022-08-06T11:30:13.490Z,99332.53
2022-08-06T11:32:47.474Z,99333.81
2022-08-06T11:35:51.323Z,99332.50
2022-08-06T11:38:50.404Z,99329.56
2022-08-06T11:41:51.427Z,99328.56
2022-08-06T11:44:25.021Z,99309.66
2022-08-06T11:47:31.156Z,99320.34
2022-08-06T11:50:27.483Z,99320.84
2022-08-06T11:52:56.112Z,99314.53
2022-08-06T11:55:25.047Z,99325.94
2022-08-06T11:58:33.221Z,99322.97
2022-08-06T12:01:34.794Z,99310.81
2022-08-06T12:03:52.260Z,99312.94
2022-08-06T12:06:29.900Z,99305.81
2022-08-06T12:09:23.928Z,99312.72
2022-08-06T12:12:28.450Z,99323.53
2022-08-06T12:15:58.968Z,99322.03
2022-08-06T12:18:20.983Z,99293.28
2022-08-06T12:20:56.169Z,99308.53
2022-08-06T12:23:54.497Z,99311.69
2022-08-06T12:26:13.577Z,99319.66
2022-08-06T12:28:44.076Z,99320.50
2022-08-06T12:31:35.806Z,99310.13
2022-08-06T12:34:00.023Z,99312.53
2022-08-06T12:36:40.799Z,99325.88
2022-08-06T12:39:19.913Z,99303.53
2022-08-06T12:41:54.441Z,99314.72
2022-08-06T12:44:56.258Z,99311.78
2022-08-06T12:48:02.594Z,99319.72
2022-08-06T12:50:28.762Z,99308.53
2022-08-06T12:53:06.463Z,99318.41
2022-08-06T12:55:55.818Z,99311.47
2022-08-06T12:58:42.716Z,99311.34
2022-08-06T13:02:07.318Z,99320.28
2022-08-06T13:04:10.498Z,99308.72
2022-08-06T13:06:44.028Z,99319.06
2022-08-06T13:09:15.154Z,99322.97
2022-08-06T13:11:42.715Z,99339.88
2022-08-06T13:14:18.854Z,99325.97
2022-08-06T13:16:57.602Z,99315.47
2022-08-06T13:19:28.164Z,99310.97
2022-08-06T13:22:05.788Z,99315.13
2022-08-06T13:24:35.183Z,99311.13
2022-08-06T13:27:06.125Z,99314.38
2022-08-06T13:30:34.278Z,99316.53
2022-08-06T13:32:33.902Z,99304.78
2022-08-06T13:35:17.281Z,99325.38
2022-08-06T13:37:57.329Z,99305.34
2022-08-06T13:40:51.488Z,99309.97
2022-08-06T13:43:55.348Z,99299.50
2022-08-06T13:46:29.639Z,99317.81
2022-08-06T13:49:12.220Z,99307.19
2022-08-06T13:51:48.376Z,99312.13
2022-08-06T13:54:20.953Z,99313.97
2022-08-06T13:56:52.039Z,99318.56
2022-08-06T13:59:24.421Z,99317.94
2022-08-06T14:02:09.095Z,99323.16
2022-08-06T14:04:36.685Z,99312.34
2022-08-06T14:07:05.378Z,99308.34
2022-08-06T14:09:41.115Z,99308.22
2022-08-06T14:12:20.487Z,99306.25
2022-08-06T14:14:50.409Z,99321.50
2022-08-06T14:17:19.518Z,99297.22
2022-08-06T14:20:16.192Z,99307.09
2022-08-06T14:22:37.106Z,99308.75
2022-08-06T14:25:08.402Z,99308.06
2022-08-06T14:27:43.528Z,99312.81
2022-08-06T14:30:27.800Z,99310.03
2022-08-06T14:33:26.771Z,99313.00
2022-08-06T14:36:07.854Z,99314.13
2022-08-06T14:38:35.532Z,99332.38
2022-08-06T14:41:50.356Z,99328.56
2022-08-06T14:44:31.252Z,99317.56
2022-08-06T14:46:59.899Z,99317.44
2022-08-06T14:49:33.096Z,99304.28
2022-08-06T14:52:19.922Z,99322.97
2022-08-06T14:54:56.222Z,99316.44
2022-08-06T14:58:03.281Z,99316.56
2022-08-06T15:00:34.759Z,99312.66
2022-08-06T15:03:07.878Z,99310.50
2022-08-06T15:06:00.528Z,99309.34
2022-08-06T15:08:28.659Z,99316.25
2022-08-06T15:10:59.847Z,99311.81
2022-08-06T15:13:36.488Z,99301.19
2022-08-06T15:16:10.913Z,99315.91
2022-08-06T15:19:20.917Z,99307.84
2022-08-06T15:21:54.878Z,99310.00
2022-08-06T15:24:38.638Z,99311.13
2022-08-06T15:27:09.607Z,99293.75
2022-08-06T15:29:47.732Z,99301.72
2022-08-06T15:32:17.575Z,99299.38
2022-08-06T15:34:48.829Z,99307.31
2022-08-06T15:37:53.023Z,99308.09
2022-08-06T15:40:14.219Z,99301.03
2022-08-06T15:42:43.270Z,99305.53
2022-08-06T15:45:50.659Z,99300.94
2022-08-06T15:48:12.924Z,99324.75
2022-08-06T15:51:30.424Z,99318.47
2022-08-06T15:53:40.187Z,99305.19
2022-08-06T15:56:10.913Z,99309.31
2022-08-06T15:58:38.316Z,99306.53
2022-08-06T16:01:08.575Z,99315.69
2022-08-06T16:03:37.829Z,99307.66
2022-08-06T16:06:25.985Z,99318.63
2022-08-06T16:09:00.054Z,99306.31
2022-08-06T16:11:28.654Z,99319.25
2022-08-06T16:14:19.838Z,99321.41
2022-08-06T16:16:59.936Z,99319.59
2022-08-06T16:19:27.507Z,99321.91
2022-08-06T16:21:55.273Z,99313.72
2022-08-06T16:24:24.371Z,99308.81
2022-08-06T16:26:57.445Z,99323.31
2022-08-06T16:29:25.447Z,99321.03
2022-08-06T16:31:54.987Z,99314.81
2022-08-06T16:34:29.969Z,99324.31
2022-08-06T16:37:00.743Z,99310.88
2022-08-06T16:39:36.433Z,99310.44
2022-08-06T16:42:10.331Z,99321.84
2022-08-06T16:50:26.303Z,99325.13
2022-08-06T16:54:12.857Z,99345.53
2022-08-06T16:55:45.080Z,99337.81
2022-08-06T16:58:16.620Z,99331.41
2022-08-06T17:02:14.903Z,99330.97
2022-08-06T17:06:42.133Z,99330.28
2022-08-06T17:09:16.177Z,99343.44
2022-08-06T17:11:57.946Z,99345.81
2022-08-06T17:14:29.140Z,99349.03
2022-08-06T17:16:58.906Z,99365.31
2022-08-06T17:19:29.482Z,99347.88
2022-08-06T17:22:04.647Z,99366.06
2022-08-06T17:24:42.483Z,99354.22
2022-08-06T17:27:16.051Z,99366.50
2022-08-06T17:30:07.383Z,99370.22
2022-08-06T17:32:46.078Z,99382.94
2022-08-06T17:35:16.536Z,99369.84
2022-08-06T17:37:50.161Z,99379.97
2022-08-06T17:42:29.200Z,99316.72
2022-08-06T17:43:23.133Z,99377.91
2022-08-06T17:46:25.172Z,99390.09
2022-08-06T17:48:50.956Z,99390.16
2022-08-06T17:51:22.226Z,99394.19
2022-08-06T17:53:52.079Z,99389.66
2022-08-06T17:56:32.302Z,99378.00
2022-08-06T17:59:18.892Z,99378.81
2022-08-06T18:01:51.061Z,99398.72
2022-08-06T18:04:32.997Z,99391.19
2022-08-06T18:07:12.337Z,99394.28
2022-08-06T18:10:08.693Z,99396.25
2022-08-06T18:12:49.108Z,99395.66
2022-08-06T18:15:47.125Z,99408.00
2022-08-06T18:18:19.234Z,99404.84
2022-08-06T18:20:48.659Z,99411.00
2022-08-06T18:23:21.332Z,99412.59
2022-08-06T18:26:02.308Z,99406.81
2022-08-06T18:28:39.936Z,99415.06
2022-08-06T18:31:20.037Z,99419.63
2022-08-06T18:33:53.529Z,99415.19
2022-08-06T18:36:32.824Z,99422.59
2022-08-06T18:39:13.389Z,99429.50
2022-08-06T18:41:57.588Z,99433.09
2022-08-06T18:44:28.174Z,99427.13
2022-08-06T18:47:12.010Z,99434.66
2022-08-06T18:49:57.880Z,99443.19
2022-08-06T18:52:39.375Z,99451.44
2022-08-06T18:55:17.616Z,99453.72
2022-08-06T18:58:04.987Z,99455.03
2022-08-06T19:00:34.842Z,99452.25
2022-08-06T19:03:02.600Z,99445.66
2022-08-06T19:05:40.379Z,99452.88
2022-08-06T19:08:12.405Z,99454.53
2022-08-06T19:10:45.226Z,99454.22
2022-08-06T19:13:15.069Z,99444.44
2022-08-06T19:15:51.255Z,99438.56
2022-08-06T19:18:25.440Z,99449.78
2022-08-06T19:20:53.476Z,99447.13
2022-08-06T19:24:00.100Z,99439.31
2022-08-06T19:26:12.279Z,99444.25
2022-08-06T19:28:49.014Z,99450.84
2022-08-06T19:31:23.773Z,99440.00
2022-08-06T19:34:14.172Z,99451.34
2022-08-06T19:36:43.271Z,99443.72
2022-08-06T19:39:58.466Z,99448.03
2022-08-06T19:42:01.142Z,99442.91
2022-08-06T19:44:38.781Z,99445.88
2022-08-06T19:47:21.735Z,99447.31
2022-08-06T19:50:00.548Z,99451.97
2022-08-06T19:52:30.539Z,99445.66
2022-08-06T19:54:59.415Z,99454.22
2022-08-06T19:57:46.759Z,99460.69
2022-08-06T20:00:50.463Z,99454.16
2022-08-06T20:03:02.608Z,99451.28
2022-08-06T20:06:20.884Z,99456.69
2022-08-06T20:08:33.626Z,99451.16
2022-08-06T20:11:09.587Z,99471.28
2022-08-06T20:13:53.037Z,99472.19
2022-08-06T20:16:20.394Z,99475.00
2022-08-06T20:18:49.272Z,99479.88
2022-08-06T20:21:20.053Z,99471.72
2022-08-06T20:24:04.572Z,99481.09
2022-08-06T20:26:36.729Z,99489.22
2022-08-06T20:29:21.807Z,99487.13
2022-08-06T20:31:55.232Z,99475.78
2022-08-06T20:34:29.079Z,99476.84
2022-08-06T20:36:57.329Z,99481.72
2022-08-06T20:39:29.700Z,99480.47
2022-08-06T20:42:07.503Z,99471.94
2022-08-06T20:44:39.299Z,99471.03
2022-08-06T20:47:46.364Z,99482.81
2022-08-06T20:50:12.144Z,99468.88
2022-08-06T20:52:41.355Z,99468.88
2022-08-06T20:55:13.819Z,99462.16
2022-08-06T20:57:47.484Z,99460.97
2022-08-06T21:00:28.082Z,99465.53
2022-08-06T21:03:28.182Z,99461.78
2022-08-06T21:05:51.161Z,99465.63
2022-08-06T21:08:26.765Z,99469.50
2022-08-06T21:10:57.818Z,99457.13
2022-08-06T21:13:35.394Z,99455.31
2022-08-06T21:16:29.058Z,99450.59
2022-08-06T21:19:01.438Z,99447.53
2022-08-06T21:21:31.755Z,99443.94
2022-08-06T21:24:00.668Z,99426.94
2022-08-06T21:26:29.622Z,99443.84
2022-08-06T21:30:07.658Z,99434.47
2022-08-06T21:31:49.476Z,99445.84
2022-08-06T21:34:17.921Z,99431.31
2022-08-06T21:36:47.711Z,99426.72
2022-08-06T21:39:17.684Z,99416.13
2022-08-06T21:41:59.215Z,99434.47
2022-08-06T21:44:31.989Z,99425.13
2022-08-06T21:47:01.014Z,99432.53
2022-08-06T21:49:59.735Z,99434.47
2022-08-06T21:52:28.010Z,99437.03
2022-08-06T21:56:35.147Z,99439.44
2022-08-06T21:58:02.634Z,99438.53
2022-08-06T22:00:36.871Z,99444.75
2022-08-06T22:04:34.635Z,99440.81
2022-08-06T22:06:20.154Z,99434.38
2022-08-06T22:08:53.009Z,99438.72
2022-08-06T22:12:36.789Z,99437.59
2022-08-06T22:14:16.517Z,99432.03
2022-08-06T22:16:54.283Z,99426.09
2022-08-06T22:19:33.235Z,99433.53
2022-08-06T22:22:07.663Z,99428.81
2022-08-06T22:24:37.124Z,99430.47
2022-08-06T22:27:06.740Z,99432.59
2022-08-06T22:29:59.159Z,99415.47
2022-08-06T22:32:28.302Z,99418.66
2022-08-06T22:34:58.555Z,99433.88
2022-08-06T22:38:15.299Z,99425.03
2022-08-06T22:40:13.514Z,99429.69
2022-08-06T22:42:59.171Z,99418.72
2022-08-06T22:46:00.261Z,99431.19
2022-08-06T22:48:18.345Z,99430.66
2022-08-06T22:50:56.665Z,99430.88
2022-08-06T22:54:30.001Z,99431.94
2022-08-06T22:56:12.586Z,99439.13
2022-08-06T22:59:03.527Z,99421.66
2022-08-06T23:02:06.690Z,99429.81
2022-08-06T23:04:14.653Z,99433.44
2022-08-06T23:06:43.985Z,99425.66
2022-08-06T23:09:17.172Z,99405.78
2022-08-06T23:11:58.939Z,99409.28
2022-08-06T23:14:32.303Z,99403.91
2022-08-06T23:17:02.604Z,99399.94
2022-08-06T23:19:34.946Z,99399.84
2022-08-06T23:22:06.648Z,99405.06
2022-08-06T23:24:37.228Z,99397.34
2022-08-06T23:27:16.180Z,99384.88
2022-08-06T23:30:09.530Z,99387.09
2022-08-06T23:32:35.890Z,99391.53
2022-08-06T23:35:08.976Z,99380.34
2022-08-06T23:38:26.797Z,99383.56
2022-08-06T23:40:43.669Z,99391.75
2022-08-06T23:43:17.304Z,99390.88
2022-08-06T23:45:48.203Z,99385.06
2022-08-06T23:48:16.854Z,99385.97
2022-08-06T23:50:52.708Z,99385.59
2022-08-06T23:54:07.431Z,99383.28
2022-08-06T23:56:14.549Z,99384.56
2022-08-06T23:58:49.178Z,99372.34
